Alcova, WY (82620)

9:34 AM MDT on May 05, 2015 (GMT -0600)
The Estates | | Change Station
CLOSE
Current Station
Personal Weather Station
Location: Alcova, WY
Elevation: 5489 ft
Nearby Weather Stations

Elev 5489 ft 42.53 °N, 106.78 °W | Updated 19 seconds ago

Overcast
Overcast
56.7 °F
Feels Like 56.7 °F
N
4.0
Wind Variable Wind from ESE
Gusts 4.0 mph

Today
High -- | Low -- °F
--% Chance of Precip.
Yesterday
High -- | Low -- °F
Precip. -- in
5:57 AM 8:11 PM
Full, 98% visible
Pressure 29.92 in
Visibility 5.0 miles
Clouds Overcast 500 ft
Dew Point 43 °F
Humidity 60%
Rainfall 0.00 in
Snow Depth Not available.
UV 1 out of 12
Pollen 8.70 out of 12
Air Quality Not available.
Flu Activity Sporadic
SPECI KCPR 051522Z 08006KT 5SM BR OVC005 07/06 A2992 RMK AO2 T00720061

More Conditions Fewer Conditions

Pressure 29.92 in
Visibility 5.0 miles
Clouds Overcast 500 ft
Dew Point 43 °F
Humidity 60%
Rainfall 0.00 in
Snow Depth Not available.
UV 1 out of 12
Pollen 8.70 out of 12
Air Quality Not available.
Flu Activity Sporadic
SPECI KCPR 051522Z 08006KT 5SM BR OVC005 07/06 A2992 RMK AO2 T00720061

More Conditions Fewer Conditions

10-Day Weather Forecast

Almanac

Astronomy

May. 05, 2015 Rise Set
Actual Time
Civil Twilight
Nautical Twilight
Astronomical Twilight
Moon
Length of Visible Light
Length of Day
Tomorrow will be .
, % of the Moon is Illuminated

Today's Extremes

State Highs State Lows

Community

WunderPhotos

Upload Photos

1,818,918 photos uploaded!

WunderBlogs® & News

Nearby

Air Quality

  Air Quality AQ Index Pollutant
Not available.

Snow Depth

Station Depth Elevation

Earthquake Activity

City Distance Mag. Time & Date
Minimum magnitude displayed is 2.5.

Coastal Water Temperatures

Place Temperature

Stations

Nearby Weather Stations

Station Location Temp. Windchill Dew Point Humidity Wind Precip. Elev Updated Type